sensor_id;sensor_type;location;lat;lon;timestamp;P1;durP1;ratioP1;P2;durP2;ratioP2
22223;SDS011;11281;52.194;21.006;2023-05-07T00:01:20;5.32;;;3.40;;
22223;SDS011;11281;52.194;21.006;2023-05-07T00:05:22;3.05;;;2.78;;
22223;SDS011;11281;52.194;21.006;2023-05-07T00:09:24;6.57;;;2.67;;
22223;SDS011;11281;52.194;21.006;2023-05-07T00:13:26;2.78;;;2.58;;
22223;SDS011;11281;52.194;21.006;2023-05-07T00:17:29;7.00;;;3.47;;
22223;SDS011;11281;52.194;21.006;2023-05-07T00:21:31;6.68;;;2.78;;
22223;SDS011;11281;52.194;21.006;2023-05-07T00:25:33;4.45;;;3.63;;
22223;SDS011;11281;52.194;21.006;2023-05-07T00:29:34;6.40;;;3.30;;
22223;SDS011;11281;52.194;21.006;2023-05-07T00:33:38;4.10;;;3.03;;
22223;SDS011;11281;52.194;21.006;2023-05-07T00:37:39;3.67;;;2.38;;
22223;SDS011;11281;52.194;21.006;2023-05-07T00:41:41;3.58;;;2.30;;
22223;SDS011;11281;52.194;21.006;2023-05-07T00:45:43;2.17;;;2.08;;
22223;SDS011;11281;52.194;21.006;2023-05-07T00:49:45;5.03;;;2.65;;
22223;SDS011;11281;52.194;21.006;2023-05-07T00:53:46;7.85;;;3.50;;
22223;SDS011;11281;52.194;21.006;2023-05-07T00:57:48;3.95;;;2.78;;
22223;SDS011;11281;52.194;21.006;2023-05-07T01:01:51;4.63;;;3.17;;
22223;SDS011;11281;52.194;21.006;2023-05-07T01:05:53;8.82;;;3.10;;
22223;SDS011;11281;52.194;21.006;2023-05-07T01:09:57;6.30;;;3.20;;
22223;SDS011;11281;52.194;21.006;2023-05-07T01:13:59;3.53;;;2.70;;
22223;SDS011;11281;52.194;21.006;2023-05-07T01:18:01;3.45;;;2.92;;
22223;SDS011;11281;52.194;21.006;2023-05-07T01:22:06;3.90;;;2.42;;
22223;SDS011;11281;52.194;21.006;2023-05-07T01:26:11;3.63;;;2.25;;
22223;SDS011;11281;52.194;21.006;2023-05-07T01:30:13;2.50;;;2.30;;
22223;SDS011;11281;52.194;21.006;2023-05-07T01:34:14;2.75;;;2.33;;
22223;SDS011;11281;52.194;21.006;2023-05-07T01:38:19;4.07;;;2.08;;
22223;SDS011;11281;52.194;21.006;2023-05-07T01:42:23;2.90;;;2.35;;
22223;SDS011;11281;52.194;21.006;2023-05-07T01:46:26;3.22;;;2.20;;
22223;SDS011;11281;52.194;21.006;2023-05-07T01:50:28;2.72;;;2.20;;
22223;SDS011;11281;52.194;21.006;2023-05-07T01:54:31;7.53;;;2.47;;
22223;SDS011;11281;52.194;21.006;2023-05-07T01:58:33;3.15;;;2.10;;
22223;SDS011;11281;52.194;21.006;2023-05-07T02:02:35;3.08;;;2.00;;
22223;SDS011;11281;52.194;21.006;2023-05-07T02:06:36;5.43;;;2.35;;
22223;SDS011;11281;52.194;21.006;2023-05-07T02:10:38;1.80;;;1.70;;
22223;SDS011;11281;52.194;21.006;2023-05-07T02:14:40;1.75;;;1.65;;
22223;SDS011;11281;52.194;21.006;2023-05-07T02:18:42;2.60;;;2.03;;
22223;SDS011;11281;52.194;21.006;2023-05-07T02:22:44;3.95;;;1.85;;
22223;SDS011;11281;52.194;21.006;2023-05-07T02:26:45;3.17;;;1.55;;
22223;SDS011;11281;52.194;21.006;2023-05-07T02:30:47;1.50;;;1.40;;
22223;SDS011;11281;52.194;21.006;2023-05-07T02:34:50;1.45;;;1.35;;
22223;SDS011;11281;52.194;21.006;2023-05-07T02:38:53;1.45;;;1.35;;
22223;SDS011;11281;52.194;21.006;2023-05-07T02:42:55;1.88;;;1.52;;
22223;SDS011;11281;52.194;21.006;2023-05-07T02:46:56;2.13;;;1.88;;
22223;SDS011;11281;52.194;21.006;2023-05-07T02:50:58;3.50;;;1.55;;
22223;SDS011;11281;52.194;21.006;2023-05-07T02:55:01;1.83;;;1.73;;
22223;SDS011;11281;52.194;21.006;2023-05-07T02:59:03;1.63;;;1.52;;
22223;SDS011;11281;52.194;21.006;2023-05-07T03:03:05;2.85;;;2.15;;
22223;SDS011;11281;52.194;21.006;2023-05-07T03:07:07;3.15;;;2.10;;
22223;SDS011;11281;52.194;21.006;2023-05-07T03:11:09;1.88;;;1.70;;
22223;SDS011;11281;52.194;21.006;2023-05-07T03:15:11;2.10;;;1.95;;
22223;SDS011;11281;52.194;21.006;2023-05-07T03:19:13;1.98;;;1.70;;
22223;SDS011;11281;52.194;21.006;2023-05-07T03:23:15;1.80;;;1.70;;
22223;SDS011;11281;52.194;21.006;2023-05-07T03:27:16;3.08;;;2.22;;
22223;SDS011;11281;52.194;21.006;2023-05-07T03:31:18;2.88;;;1.83;;
22223;SDS011;11281;52.194;21.006;2023-05-07T03:35:20;1.88;;;1.75;;
22223;SDS011;11281;52.194;21.006;2023-05-07T03:39:22;4.88;;;1.70;;
22223;SDS011;11281;52.194;21.006;2023-05-07T03:43:24;2.17;;;1.55;;
22223;SDS011;11281;52.194;21.006;2023-05-07T03:47:26;1.83;;;1.73;;
22223;SDS011;11281;52.194;21.006;2023-05-07T03:51:28;1.60;;;1.42;;
22223;SDS011;11281;52.194;21.006;2023-05-07T03:55:29;2.35;;;1.88;;
22223;SDS011;11281;52.194;21.006;2023-05-07T03:59:31;1.80;;;1.70;;
22223;SDS011;11281;52.194;21.006;2023-05-07T04:03:32;2.30;;;1.70;;
22223;SDS011;11281;52.194;21.006;2023-05-07T04:07:34;1.70;;;1.58;;
22223;SDS011;11281;52.194;21.006;2023-05-07T04:11:36;2.30;;;1.60;;
22223;SDS011;11281;52.194;21.006;2023-05-07T04:15:38;2.63;;;2.15;;
22223;SDS011;11281;52.194;21.006;2023-05-07T04:19:39;1.88;;;1.75;;
22223;SDS011;11281;52.194;21.006;2023-05-07T04:23:49;2.13;;;1.92;;
22223;SDS011;11281;52.194;21.006;2023-05-07T04:27:51;1.65;;;1.55;;
22223;SDS011;11281;52.194;21.006;2023-05-07T04:31:53;2.70;;;1.98;;
22223;SDS011;11281;52.194;21.006;2023-05-07T04:35:58;2.58;;;1.77;;
22223;SDS011;11281;52.194;21.006;2023-05-07T04:40:04;2.05;;;1.90;;
22223;SDS011;11281;52.194;21.006;2023-05-07T04:44:06;2.15;;;1.95;;
22223;SDS011;11281;52.194;21.006;2023-05-07T04:48:10;2.47;;;2.15;;
22223;SDS011;11281;52.194;21.006;2023-05-07T04:52:12;1.92;;;1.75;;
22223;SDS011;11281;52.194;21.006;2023-05-07T04:56:13;2.05;;;1.75;;
22223;SDS011;11281;52.194;21.006;2023-05-07T05:00:15;2.28;;;2.00;;
22223;SDS011;11281;52.194;21.006;2023-05-07T05:04:20;2.70;;;2.20;;
22223;SDS011;11281;52.194;21.006;2023-05-07T05:08:21;4.30;;;2.25;;
22223;SDS011;11281;52.194;21.006;2023-05-07T05:12:23;2.00;;;1.80;;
22223;SDS011;11281;52.194;21.006;2023-05-07T05:16:25;2.72;;;2.30;;
22223;SDS011;11281;52.194;21.006;2023-05-07T05:20:26;2.05;;;1.95;;
22223;SDS011;11281;52.194;21.006;2023-05-07T05:24:28;2.78;;;1.92;;
22223;SDS011;11281;52.194;21.006;2023-05-07T05:28:33;2.13;;;1.80;;
22223;SDS011;11281;52.194;21.006;2023-05-07T05:32:34;2.85;;;1.70;;
22223;SDS011;11281;52.194;21.006;2023-05-07T05:36:36;1.88;;;1.73;;
22223;SDS011;11281;52.194;21.006;2023-05-07T05:40:38;2.17;;;1.92;;
22223;SDS011;11281;52.194;21.006;2023-05-07T05:44:39;1.55;;;1.45;;
22223;SDS011;11281;52.194;21.006;2023-05-07T05:48:42;1.77;;;1.60;;
22223;SDS011;11281;52.194;21.006;2023-05-07T05:52:44;1.60;;;1.50;;
22223;SDS011;11281;52.194;21.006;2023-05-07T05:56:46;3.97;;;1.95;;
22223;SDS011;11281;52.194;21.006;2023-05-07T06:00:47;1.65;;;1.55;;
22223;SDS011;11281;52.194;21.006;2023-05-07T06:04:49;1.83;;;1.73;;
22223;SDS011;11281;52.194;21.006;2023-05-07T06:08:51;4.22;;;1.70;;
22223;SDS011;11281;52.194;21.006;2023-05-07T06:12:53;2.67;;;1.90;;
22223;SDS011;11281;52.194;21.006;2023-05-07T06:16:56;2.30;;;1.50;;
22223;SDS011;11281;52.194;21.006;2023-05-07T06:20:58;1.73;;;1.50;;
22223;SDS011;11281;52.194;21.006;2023-05-07T06:25:00;2.10;;;1.90;;
22223;SDS011;11281;52.194;21.006;2023-05-07T06:29:01;1.88;;;1.70;;
22223;SDS011;11281;52.194;21.006;2023-05-07T06:33:04;2.10;;;1.40;;
22223;SDS011;11281;52.194;21.006;2023-05-07T06:37:06;1.98;;;1.58;;
22223;SDS011;11281;52.194;21.006;2023-05-07T06:41:08;3.50;;;2.15;;
22223;SDS011;11281;52.194;21.006;2023-05-07T06:45:09;2.10;;;1.90;;
22223;SDS011;11281;52.194;21.006;2023-05-07T06:49:12;2.30;;;1.75;;
22223;SDS011;11281;52.194;21.006;2023-05-07T06:53:14;1.65;;;1.55;;
22223;SDS011;11281;52.194;21.006;2023-05-07T06:57:15;2.30;;;1.48;;
22223;SDS011;11281;52.194;21.006;2023-05-07T07:01:17;1.48;;;1.38;;
22223;SDS011;11281;52.194;21.006;2023-05-07T07:05:18;2.70;;;1.70;;
22223;SDS011;11281;52.194;21.006;2023-05-07T07:09:20;1.50;;;1.40;;
22223;SDS011;11281;52.194;21.006;2023-05-07T07:13:22;2.15;;;1.70;;
22223;SDS011;11281;52.194;21.006;2023-05-07T07:17:24;3.60;;;1.40;;
22223;SDS011;11281;52.194;21.006;2023-05-07T07:21:26;2.70;;;1.67;;
22223;SDS011;11281;52.194;21.006;2023-05-07T07:25:28;1.50;;;1.40;;
22223;SDS011;11281;52.194;21.006;2023-05-07T07:29:30;5.10;;;1.58;;
22223;SDS011;11281;52.194;21.006;2023-05-07T07:33:31;2.08;;;1.50;;
22223;SDS011;11281;52.194;21.006;2023-05-07T07:37:33;1.33;;;1.30;;
22223;SDS011;11281;52.194;21.006;2023-05-07T07:41:34;2.38;;;1.25;;
22223;SDS011;11281;52.194;21.006;2023-05-07T07:45:36;2.50;;;1.75;;
22223;SDS011;11281;52.194;21.006;2023-05-07T07:49:38;1.40;;;1.33;;
22223;SDS011;11281;52.194;21.006;2023-05-07T07:53:40;1.33;;;1.23;;
22223;SDS011;11281;52.194;21.006;2023-05-07T07:57:41;3.40;;;1.50;;
22223;SDS011;11281;52.194;21.006;2023-05-07T08:01:44;1.40;;;1.30;;
22223;SDS011;11281;52.194;21.006;2023-05-07T08:05:46;1.48;;;1.38;;
22223;SDS011;11281;52.194;21.006;2023-05-07T08:09:47;1.75;;;1.60;;
22223;SDS011;11281;52.194;21.006;2023-05-07T08:13:49;2.13;;;1.30;;
22223;SDS011;11281;52.194;21.006;2023-05-07T08:17:52;1.42;;;1.27;;
22223;SDS011;11281;52.194;21.006;2023-05-07T08:21:54;1.80;;;1.30;;
22223;SDS011;11281;52.194;21.006;2023-05-07T08:25:56;2.50;;;1.60;;
22223;SDS011;11281;52.194;21.006;2023-05-07T08:29:57;2.15;;;1.50;;
22223;SDS011;11281;52.194;21.006;2023-05-07T08:33:59;1.90;;;1.50;;
22223;SDS011;11281;52.194;21.006;2023-05-07T08:38:01;2.20;;;1.30;;
22223;SDS011;11281;52.194;21.006;2023-05-07T08:42:03;3.05;;;1.30;;
22223;SDS011;11281;52.194;21.006;2023-05-07T08:46:05;5.78;;;1.60;;
22223;SDS011;11281;52.194;21.006;2023-05-07T08:50:11;2.03;;;1.50;;
22223;SDS011;11281;52.194;21.006;2023-05-07T08:54:15;4.20;;;1.33;;
22223;SDS011;11281;52.194;21.006;2023-05-07T08:58:18;4.03;;;1.30;;
22223;SDS011;11281;52.194;21.006;2023-05-07T09:02:20;1.52;;;1.42;;
22223;SDS011;11281;52.194;21.006;2023-05-07T09:06:21;2.42;;;1.20;;
22223;SDS011;11281;52.194;21.006;2023-05-07T09:10:23;2.35;;;1.30;;
22223;SDS011;11281;52.194;21.006;2023-05-07T09:14:27;1.55;;;1.40;;
22223;SDS011;11281;52.194;21.006;2023-05-07T09:18:29;1.83;;;1.38;;
22223;SDS011;11281;52.194;21.006;2023-05-07T09:22:31;2.85;;;1.50;;
22223;SDS011;11281;52.194;21.006;2023-05-07T09:26:34;1.90;;;1.65;;
22223;SDS011;11281;52.194;21.006;2023-05-07T09:30:36;2.42;;;1.63;;
22223;SDS011;11281;52.194;21.006;2023-05-07T09:34:37;1.90;;;1.48;;
22223;SDS011;11281;52.194;21.006;2023-05-07T09:38:39;3.00;;;1.33;;
22223;SDS011;11281;52.194;21.006;2023-05-07T09:42:41;2.85;;;1.50;;
22223;SDS011;11281;52.194;21.006;2023-05-07T09:46:43;1.95;;;1.80;;
22223;SDS011;11281;52.194;21.006;2023-05-07T09:50:49;1.98;;;1.42;;
22223;SDS011;11281;52.194;21.006;2023-05-07T09:54:58;2.38;;;1.55;;
22223;SDS011;11281;52.194;21.006;2023-05-07T09:59:01;2.33;;;1.35;;
22223;SDS011;11281;52.194;21.006;2023-05-07T10:03:04;1.50;;;1.40;;
22223;SDS011;11281;52.194;21.006;2023-05-07T10:07:08;3.50;;;1.58;;
22223;SDS011;11281;52.194;21.006;2023-05-07T10:11:10;1.80;;;1.35;;
22223;SDS011;11281;52.194;21.006;2023-05-07T10:15:12;2.97;;;1.63;;
22223;SDS011;11281;52.194;21.006;2023-05-07T10:19:15;1.50;;;1.20;;
22223;SDS011;11281;52.194;21.006;2023-05-07T10:23:19;1.58;;;1.30;;
22223;SDS011;11281;52.194;21.006;2023-05-07T10:27:25;2.53;;;2.00;;
22223;SDS011;11281;52.194;21.006;2023-05-07T10:36:07;3.85;;;1.50;;
22223;SDS011;11281;52.194;21.006;2023-05-07T10:40:09;1.85;;;1.42;;
22223;SDS011;11281;52.194;21.006;2023-05-07T10:44:26;3.17;;;1.17;;
22223;SDS011;11281;52.194;21.006;2023-05-07T10:48:29;1.58;;;1.48;;
22223;SDS011;11281;52.194;21.006;2023-05-07T10:52:31;2.25;;;1.70;;
22223;SDS011;11281;52.194;21.006;2023-05-07T10:56:33;2.28;;;1.60;;
22223;SDS011;11281;52.194;21.006;2023-05-07T11:04:37;1.67;;;1.58;;
22223;SDS011;11281;52.194;21.006;2023-05-07T11:12:54;1.40;;;1.30;;
22223;SDS011;11281;52.194;21.006;2023-05-07T11:17:01;2.20;;;1.55;;
22223;SDS011;11281;52.194;21.006;2023-05-07T11:21:04;1.55;;;1.45;;
22223;SDS011;11281;52.194;21.006;2023-05-07T11:25:06;2.83;;;1.17;;
22223;SDS011;11281;52.194;21.006;2023-05-07T11:29:12;2.58;;;1.30;;
22223;SDS011;11281;52.194;21.006;2023-05-07T11:33:22;1.45;;;1.35;;
22223;SDS011;11281;52.194;21.006;2023-05-07T11:37:26;3.45;;;1.20;;
22223;SDS011;11281;52.194;21.006;2023-05-07T11:41:33;1.88;;;1.45;;
22223;SDS011;11281;52.194;21.006;2023-05-07T11:45:38;1.87;;;1.60;;
22223;SDS011;11281;52.194;21.006;2023-05-07T11:49:39;4.85;;;1.48;;
22223;SDS011;11281;52.194;21.006;2023-05-07T11:53:42;1.52;;;1.42;;
22223;SDS011;11281;52.194;21.006;2023-05-07T11:57:46;1.73;;;1.60;;
22223;SDS011;11281;52.194;21.006;2023-05-07T12:01:48;1.63;;;1.20;;
22223;SDS011;11281;52.194;21.006;2023-05-07T12:05:50;1.33;;;1.10;;
22223;SDS011;11281;52.194;21.006;2023-05-07T12:09:53;2.75;;;1.35;;
22223;SDS011;11281;52.194;21.006;2023-05-07T12:13:54;2.15;;;1.80;;
22223;SDS011;11281;52.194;21.006;2023-05-07T12:17:56;3.33;;;1.52;;
22223;SDS011;11281;52.194;21.006;2023-05-07T12:21:58;1.88;;;1.60;;
22223;SDS011;11281;52.194;21.006;2023-05-07T12:26:00;2.85;;;1.60;;
22223;SDS011;11281;52.194;21.006;2023-05-07T12:30:03;1.38;;;1.27;;
22223;SDS011;11281;52.194;21.006;2023-05-07T12:34:05;1.05;;;0.95;;
22223;SDS011;11281;52.194;21.006;2023-05-07T12:38:11;2.15;;;1.60;;
22223;SDS011;11281;52.194;21.006;2023-05-07T12:42:20;1.60;;;1.50;;
22223;SDS011;11281;52.194;21.006;2023-05-07T12:46:26;3.55;;;1.30;;
22223;SDS011;11281;52.194;21.006;2023-05-07T12:50:31;2.75;;;1.77;;
22223;SDS011;11281;52.194;21.006;2023-05-07T12:54:34;1.60;;;1.50;;
22223;SDS011;11281;52.194;21.006;2023-05-07T12:58:39;1.85;;;1.65;;
22223;SDS011;11281;52.194;21.006;2023-05-07T13:02:41;1.58;;;1.40;;
22223;SDS011;11281;52.194;21.006;2023-05-07T13:06:48;3.13;;;1.45;;
22223;SDS011;11281;52.194;21.006;2023-05-07T13:10:49;1.90;;;1.45;;
22223;SDS011;11281;52.194;21.006;2023-05-07T13:14:51;2.28;;;1.60;;
22223;SDS011;11281;52.194;21.006;2023-05-07T13:18:53;1.48;;;1.20;;
22223;SDS011;11281;52.194;21.006;2023-05-07T13:22:55;4.50;;;1.98;;
22223;SDS011;11281;52.194;21.006;2023-05-07T13:26:56;3.42;;;1.55;;
22223;SDS011;11281;52.194;21.006;2023-05-07T13:30:58;2.38;;;1.85;;
22223;SDS011;11281;52.194;21.006;2023-05-07T13:35:00;2.15;;;1.60;;
22223;SDS011;11281;52.194;21.006;2023-05-07T13:39:02;2.60;;;1.17;;
22223;SDS011;11281;52.194;21.006;2023-05-07T13:43:05;5.20;;;1.50;;
22223;SDS011;11281;52.194;21.006;2023-05-07T13:47:07;2.15;;;1.50;;
22223;SDS011;11281;52.194;21.006;2023-05-07T13:51:09;1.98;;;1.40;;
22223;SDS011;11281;52.194;21.006;2023-05-07T13:55:11;1.88;;;1.38;;
22223;SDS011;11281;52.194;21.006;2023-05-07T13:59:13;3.30;;;1.33;;
22223;SDS011;11281;52.194;21.006;2023-05-07T14:03:15;1.73;;;1.60;;
22223;SDS011;11281;52.194;21.006;2023-05-07T14:07:17;3.20;;;1.58;;
22223;SDS011;11281;52.194;21.006;2023-05-07T14:11:19;4.07;;;1.90;;
22223;SDS011;11281;52.194;21.006;2023-05-07T14:15:21;1.60;;;1.50;;
22223;SDS011;11281;52.194;21.006;2023-05-07T14:19:23;1.38;;;1.20;;
22223;SDS011;11281;52.194;21.006;2023-05-07T14:23:25;1.50;;;1.40;;
22223;SDS011;11281;52.194;21.006;2023-05-07T14:27:27;3.70;;;1.90;;
22223;SDS011;11281;52.194;21.006;2023-05-07T14:31:28;2.80;;;1.48;;
22223;SDS011;11281;52.194;21.006;2023-05-07T14:35:30;2.50;;;1.80;;
22223;SDS011;11281;52.194;21.006;2023-05-07T14:39:32;3.88;;;2.58;;
22223;SDS011;11281;52.194;21.006;2023-05-07T14:43:34;3.50;;;2.35;;
22223;SDS011;11281;52.194;21.006;2023-05-07T14:47:36;2.17;;;1.90;;
22223;SDS011;11281;52.194;21.006;2023-05-07T14:51:37;2.75;;;1.90;;
22223;SDS011;11281;52.194;21.006;2023-05-07T14:55:39;6.40;;;2.42;;
22223;SDS011;11281;52.194;21.006;2023-05-07T14:59:40;2.20;;;1.50;;
22223;SDS011;11281;52.194;21.006;2023-05-07T15:03:43;1.80;;;1.55;;
22223;SDS011;11281;52.194;21.006;2023-05-07T15:07:45;2.33;;;1.40;;
22223;SDS011;11281;52.194;21.006;2023-05-07T15:11:46;2.35;;;1.48;;
22223;SDS011;11281;52.194;21.006;2023-05-07T15:15:47;4.15;;;1.70;;
22223;SDS011;11281;52.194;21.006;2023-05-07T15:19:50;1.60;;;1.50;;
22223;SDS011;11281;52.194;21.006;2023-05-07T15:23:51;2.90;;;1.55;;
22223;SDS011;11281;52.194;21.006;2023-05-07T15:27:53;2.25;;;1.38;;
22223;SDS011;11281;52.194;21.006;2023-05-07T15:31:54;2.00;;;1.40;;
22223;SDS011;11281;52.194;21.006;2023-05-07T15:35:56;2.08;;;1.42;;
22223;SDS011;11281;52.194;21.006;2023-05-07T15:39:59;3.00;;;1.67;;
22223;SDS011;11281;52.194;21.006;2023-05-07T15:44:03;1.60;;;1.50;;
22223;SDS011;11281;52.194;21.006;2023-05-07T15:48:05;2.30;;;1.35;;
22223;SDS011;11281;52.194;21.006;2023-05-07T15:52:08;2.75;;;1.58;;
22223;SDS011;11281;52.194;21.006;2023-05-07T15:56:14;2.60;;;1.55;;
22223;SDS011;11281;52.194;21.006;2023-05-07T16:00:16;1.63;;;1.52;;
22223;SDS011;11281;52.194;21.006;2023-05-07T16:04:19;2.85;;;1.40;;
22223;SDS011;11281;52.194;21.006;2023-05-07T16:08:20;2.30;;;1.70;;
22223;SDS011;11281;52.194;21.006;2023-05-07T16:12:22;2.15;;;1.48;;
22223;SDS011;11281;52.194;21.006;2023-05-07T16:16:24;2.97;;;1.50;;
22223;SDS011;11281;52.194;21.006;2023-05-07T16:20:29;2.33;;;1.63;;
22223;SDS011;11281;52.194;21.006;2023-05-07T16:24:31;2.33;;;1.20;;
22223;SDS011;11281;52.194;21.006;2023-05-07T16:28:33;1.70;;;1.60;;
22223;SDS011;11281;52.194;21.006;2023-05-07T16:32:34;2.55;;;1.48;;
22223;SDS011;11281;52.194;21.006;2023-05-07T16:36:36;3.40;;;1.55;;
22223;SDS011;11281;52.194;21.006;2023-05-07T16:40:38;3.53;;;1.35;;
22223;SDS011;11281;52.194;21.006;2023-05-07T16:44:39;1.42;;;1.33;;
22223;SDS011;11281;52.194;21.006;2023-05-07T16:48:41;2.20;;;1.63;;
22223;SDS011;11281;52.194;21.006;2023-05-07T16:52:43;3.20;;;1.85;;
22223;SDS011;11281;52.194;21.006;2023-05-07T16:56:45;2.83;;;1.40;;
22223;SDS011;11281;52.194;21.006;2023-05-07T17:00:47;3.30;;;1.80;;
22223;SDS011;11281;52.194;21.006;2023-05-07T17:04:49;2.90;;;1.80;;
22223;SDS011;11281;52.194;21.006;2023-05-07T17:08:51;3.20;;;2.35;;
22223;SDS011;11281;52.194;21.006;2023-05-07T17:12:53;3.03;;;1.92;;
22223;SDS011;11281;52.194;21.006;2023-05-07T17:16:55;3.42;;;1.85;;
22223;SDS011;11281;52.194;21.006;2023-05-07T17:20:57;2.13;;;1.90;;
22223;SDS011;11281;52.194;21.006;2023-05-07T17:24:59;2.55;;;1.90;;
22223;SDS011;11281;52.194;21.006;2023-05-07T17:29:04;3.40;;;2.38;;
22223;SDS011;11281;52.194;21.006;2023-05-07T17:33:05;2.78;;;2.00;;
22223;SDS011;11281;52.194;21.006;2023-05-07T17:37:07;4.18;;;1.85;;
22223;SDS011;11281;52.194;21.006;2023-05-07T17:41:09;2.20;;;2.00;;
22223;SDS011;11281;52.194;21.006;2023-05-07T17:45:10;1.83;;;1.73;;
22223;SDS011;11281;52.194;21.006;2023-05-07T17:49:14;2.45;;;2.22;;
22223;SDS011;11281;52.194;21.006;2023-05-07T17:53:15;2.40;;;1.50;;
22223;SDS011;11281;52.194;21.006;2023-05-07T17:57:17;1.77;;;1.67;;
22223;SDS011;11281;52.194;21.006;2023-05-07T18:01:20;3.75;;;2.47;;
22223;SDS011;11281;52.194;21.006;2023-05-07T18:05:22;3.67;;;2.13;;
22223;SDS011;11281;52.194;21.006;2023-05-07T18:09:24;3.13;;;1.90;;
22223;SDS011;11281;52.194;21.006;2023-05-07T18:13:26;4.60;;;2.35;;
22223;SDS011;11281;52.194;21.006;2023-05-07T18:17:28;3.05;;;2.25;;
22223;SDS011;11281;52.194;21.006;2023-05-07T18:21:30;4.25;;;2.45;;
22223;SDS011;11281;52.194;21.006;2023-05-07T18:25:32;5.03;;;2.50;;
22223;SDS011;11281;52.194;21.006;2023-05-07T18:29:33;2.95;;;2.65;;
22223;SDS011;11281;52.194;21.006;2023-05-07T18:33:35;4.13;;;2.53;;
22223;SDS011;11281;52.194;21.006;2023-05-07T18:37:37;5.82;;;3.78;;
22223;SDS011;11281;52.194;21.006;2023-05-07T18:41:38;4.43;;;3.47;;
22223;SDS011;11281;52.194;21.006;2023-05-07T18:45:40;6.53;;;3.55;;
22223;SDS011;11281;52.194;21.006;2023-05-07T18:49:42;3.85;;;3.17;;
22223;SDS011;11281;52.194;21.006;2023-05-07T18:53:43;3.65;;;2.80;;
22223;SDS011;11281;52.194;21.006;2023-05-07T18:57:45;4.00;;;3.00;;
22223;SDS011;11281;52.194;21.006;2023-05-07T19:01:48;5.40;;;2.85;;
22223;SDS011;11281;52.194;21.006;2023-05-07T19:05:51;6.95;;;3.70;;
22223;SDS011;11281;52.194;21.006;2023-05-07T19:09:53;2.78;;;2.55;;
22223;SDS011;11281;52.194;21.006;2023-05-07T19:13:54;4.20;;;3.03;;
22223;SDS011;11281;52.194;21.006;2023-05-07T19:17:57;5.47;;;2.55;;
22223;SDS011;11281;52.194;21.006;2023-05-07T19:21:58;4.22;;;3.03;;
22223;SDS011;11281;52.194;21.006;2023-05-07T19:26:00;3.72;;;2.80;;
22223;SDS011;11281;52.194;21.006;2023-05-07T19:30:04;5.88;;;3.05;;
22223;SDS011;11281;52.194;21.006;2023-05-07T19:34:07;5.45;;;2.60;;
22223;SDS011;11281;52.194;21.006;2023-05-07T19:38:09;2.97;;;2.63;;
22223;SDS011;11281;52.194;21.006;2023-05-07T19:42:11;8.07;;;2.92;;
22223;SDS011;11281;52.194;21.006;2023-05-07T19:46:13;3.42;;;2.70;;
22223;SDS011;11281;52.194;21.006;2023-05-07T19:50:16;4.68;;;3.05;;
22223;SDS011;11281;52.194;21.006;2023-05-07T19:54:18;4.78;;;3.03;;
22223;SDS011;11281;52.194;21.006;2023-05-07T19:58:20;5.80;;;3.15;;
22223;SDS011;11281;52.194;21.006;2023-05-07T20:02:21;6.63;;;3.15;;
22223;SDS011;11281;52.194;21.006;2023-05-07T20:06:23;3.75;;;2.80;;
22223;SDS011;11281;52.194;21.006;2023-05-07T20:10:25;6.82;;;3.05;;
22223;SDS011;11281;52.194;21.006;2023-05-07T20:14:27;3.63;;;3.20;;
22223;SDS011;11281;52.194;21.006;2023-05-07T20:18:28;3.58;;;2.85;;
22223;SDS011;11281;52.194;21.006;2023-05-07T20:22:30;4.22;;;3.30;;
22223;SDS011;11281;52.194;21.006;2023-05-07T20:26:32;6.47;;;3.17;;
22223;SDS011;11281;52.194;21.006;2023-05-07T20:30:33;6.50;;;3.22;;
22223;SDS011;11281;52.194;21.006;2023-05-07T20:34:35;4.88;;;3.38;;
22223;SDS011;11281;52.194;21.006;2023-05-07T20:38:37;5.38;;;3.15;;
22223;SDS011;11281;52.194;21.006;2023-05-07T20:42:38;5.70;;;3.83;;
22223;SDS011;11281;52.194;21.006;2023-05-07T20:46:40;5.93;;;3.88;;
22223;SDS011;11281;52.194;21.006;2023-05-07T20:50:42;6.18;;;3.80;;
22223;SDS011;11281;52.194;21.006;2023-05-07T20:54:43;12.15;;;4.15;;
22223;SDS011;11281;52.194;21.006;2023-05-07T20:58:47;6.10;;;3.85;;
22223;SDS011;11281;52.194;21.006;2023-05-07T21:02:49;5.45;;;4.45;;
22223;SDS011;11281;52.194;21.006;2023-05-07T21:06:51;7.55;;;4.55;;
22223;SDS011;11281;52.194;21.006;2023-05-07T21:10:53;5.00;;;4.15;;
22223;SDS011;11281;52.194;21.006;2023-05-07T21:14:55;5.45;;;4.28;;
22223;SDS011;11281;52.194;21.006;2023-05-07T21:18:57;5.82;;;4.13;;
22223;SDS011;11281;52.194;21.006;2023-05-07T21:22:59;6.63;;;4.25;;
22223;SDS011;11281;52.194;21.006;2023-05-07T21:27:00;5.85;;;4.35;;
22223;SDS011;11281;52.194;21.006;2023-05-07T21:31:02;7.28;;;4.55;;
22223;SDS011;11281;52.194;21.006;2023-05-07T21:35:04;10.75;;;4.57;;
22223;SDS011;11281;52.194;21.006;2023-05-07T21:39:06;5.50;;;3.88;;
22223;SDS011;11281;52.194;21.006;2023-05-07T21:43:08;7.07;;;4.38;;
22223;SDS011;11281;52.194;21.006;2023-05-07T21:47:10;7.50;;;5.20;;
22223;SDS011;11281;52.194;21.006;2023-05-07T21:51:12;6.38;;;4.53;;
22223;SDS011;11281;52.194;21.006;2023-05-07T21:55:14;4.32;;;3.58;;
22223;SDS011;11281;52.194;21.006;2023-05-07T21:59:18;7.45;;;4.25;;
22223;SDS011;11281;52.194;21.006;2023-05-07T22:03:20;6.18;;;4.55;;
22223;SDS011;11281;52.194;21.006;2023-05-07T22:07:22;8.80;;;4.80;;
22223;SDS011;11281;52.194;21.006;2023-05-07T22:11:24;8.52;;;4.90;;
22223;SDS011;11281;52.194;21.006;2023-05-07T22:15:26;7.93;;;4.95;;
22223;SDS011;11281;52.194;21.006;2023-05-07T22:19:28;6.40;;;4.70;;
22223;SDS011;11281;52.194;21.006;2023-05-07T22:23:30;5.63;;;4.95;;
22223;SDS011;11281;52.194;21.006;2023-05-07T22:27:32;8.77;;;4.28;;
22223;SDS011;11281;52.194;21.006;2023-05-07T22:31:33;9.20;;;4.80;;
22223;SDS011;11281;52.194;21.006;2023-05-07T22:35:36;5.70;;;4.78;;
22223;SDS011;11281;52.194;21.006;2023-05-07T22:39:37;7.53;;;4.72;;
22223;SDS011;11281;52.194;21.006;2023-05-07T22:43:41;9.05;;;5.20;;
22223;SDS011;11281;52.194;21.006;2023-05-07T22:47:43;11.20;;;6.22;;
22223;SDS011;11281;52.194;21.006;2023-05-07T22:51:45;9.55;;;5.93;;
22223;SDS011;11281;52.194;21.006;2023-05-07T22:55:46;9.15;;;5.55;;
22223;SDS011;11281;52.194;21.006;2023-05-07T22:59:53;8.07;;;5.32;;
22223;SDS011;11281;52.194;21.006;2023-05-07T23:03:55;9.35;;;5.18;;
22223;SDS011;11281;52.194;21.006;2023-05-07T23:07:57;8.25;;;5.15;;
22223;SDS011;11281;52.194;21.006;2023-05-07T23:11:59;8.25;;;5.28;;
22223;SDS011;11281;52.194;21.006;2023-05-07T23:16:00;7.70;;;4.88;;
22223;SDS011;11281;52.194;21.006;2023-05-07T23:20:02;8.50;;;5.18;;
22223;SDS011;11281;52.194;21.006;2023-05-07T23:24:04;6.15;;;4.30;;
22223;SDS011;11281;52.194;21.006;2023-05-07T23:28:07;7.28;;;4.78;;
22223;SDS011;11281;52.194;21.006;2023-05-07T23:32:09;6.50;;;4.50;;
22223;SDS011;11281;52.194;21.006;2023-05-07T23:36:10;5.88;;;4.18;;
22223;SDS011;11281;52.194;21.006;2023-05-07T23:40:12;4.28;;;3.42;;
22223;SDS011;11281;52.194;21.006;2023-05-07T23:44:13;9.13;;;3.92;;
22223;SDS011;11281;52.194;21.006;2023-05-07T23:48:18;5.88;;;3.33;;
22223;SDS011;11281;52.194;21.006;2023-05-07T23:52:19;5.47;;;4.05;;
22223;SDS011;11281;52.194;21.006;2023-05-07T23:56:22;5.93;;;3.42;;
